Terminal Aerodrome Forecast
Issued by NWS

Home | Current Version | Previous Version | Text Only | Print | Product List | Glossary On
Versions: 1 2 3 4 5 6 7 8 9 10 11 12 13 14 15 16 17 18 19 20 21
418
FTUS41 KAKQ 291016 AAB
TAFPHF
TAF AMD
KPHF 291016Z 2910/3006 02009KT P6SM SCT040
     FM291400 36012KT P6SM SCT070
     FM292300 04007KT P6SM SKC=

USA.gov is the U.S. government's official web portal to all federal, state and local government web resources and services.